Meteo Giornale » Osservazioni meteo Cile » Osorno-Canal Baj

ore: 05:00 - Osservazioni Meteo Osorno-Canal Baj
Lat. 40° 36' S Lon. 73° 2' W Alt. 65 metri s.l.m.

sereno America/Santiago

5 °C

Sereno

Temp. 24 Ore

-2 °C

15 °C

Nord

3.7 Km/h

Dew point 5 °C

Umidità 100 %

Visibilità  10 Km

Il sole sorge alle ore 07:28

Il sole tramonta alle ore 19:56

Data e Ora Cielo e Fenomeni T °C DP °C Um. % Pres. hPa Vis. km Vento km/h
Oggi h: 05:00 sereno Sereno 5 5 100 1021 10 N 3.7
Oggi h: 04:00 sereno Sereno 6 5 93 1021 10 N 3.7
Oggi h: 03:00 sereno Sereno 6 5 93 1022 10 N 5.5
Oggi h: 02:00 sereno Sereno 6 5 93 1023 10 N 5.5
Oggi h: 01:00 sereno Sereno 7 4 81 1023 10 N 3.7
Oggi h: 00:00 sereno Sereno 5 4 93 1024 10 N 0
Ieri h: 23:00 sereno Sereno 8 5 81 1024 10 N 5.5
Ieri h: 22:00 sereno Sereno 8 4 75 1024 10 S 9.3
Ieri h: 21:00 sereno Sereno 9 4 70 1024 10 N 5.5
Ieri h: 20:00 sereno Sereno 12 4 57 1024 10 SE 11.1
Ieri h: 19:00 sereno Sereno 14 4 50 1024 10 S/SE 13
Ieri h: 18:00 nuvoloso Nuvoloso 15 4 47 1023 10 S/SE 11.1
Ieri h: 17:00 nuvoloso Nuvoloso 15 3 44 1024 10 SE 11.1
Ieri h: 16:00 nuvoloso Nuvoloso 14 4 50 1024 10 N 7.4
Ieri h: 15:00 nuvoloso Nuvoloso 13 3 50 1025 10 N 7.4
Ieri h: 14:00 nuvoloso Nuvoloso 13 5 58 1025 10 S 9.3
Ieri h: 13:00 poco_nuvoloso Poco Nuvoloso 12 5 62 1026 10 E 9.3
Ieri h: 12:00 poco_nuvoloso Poco Nuvoloso 11 5 66 1027 10 N 3.7
Ieri h: 11:00 poco_nuvoloso Poco Nuvoloso 9 4 70 1026 10 N 3.7
Ieri h: 09:00 sereno Sereno 1 0 93 1026 10 N 0
Ieri h: 08:25 poco_nuvoloso Poco Nuvoloso -1 -1 100 1025 10 N 0
Ieri h: 08:08 nuvoloso Nuvoloso -1 -1 100 1025 2 N 1.8
Ieri h: 08:00 nebbia Cielo Invisibile -2 -2 100 1025 10 N 0
Ieri h: 07:57 nuvoloso Nuvoloso -2 -2 100 1025 10 N 0
Ieri h: 07:26 foschia Foschia -2 -2 100 1025 1 N 3.7
Ieri h: 07:20 foschia Foschia -2 -2 100 1025 4 N 3.7
Ieri h: 07:09 nebbia Nebbia Congelantesi -1 -1 100 1025 0.6 N 3.7
Ieri h: 07:08 foschia Foschia -1 -2 92 1025 0.55 N 3.7
Ieri h: 07:01 foschia Foschia -2 -2 100 1025 1 N 3.7
Ieri h: 07:00 nebbia Cielo Invisibile -2 -2 100 1025 10 N 3.7
Ieri h: 06:58 nebbia Cielo Invisibile -2 -2 100 1025 10 N 3.7
Ieri h: 06:00 sereno Sereno -2 -2 100 1024 10 N 0